Time;durP1;ratioP1;P1;durP2;ratioP2;P2;SDS_P1;SDS_P2;PMS_P1;PMS_P2;Temp;Humidity;BMP_temperature;BMP_pressure;BME280_temperature;BME280_humidity;BME280_pressure;Samples;Min_cycle;Max_cycle;Signal;HPM_P1;HPM_P2
2021/10/12 00:03:01;;;;;;;3.85;1.80;;;17.50;73.30;;;;;;10497013;28;20063;-45
2021/10/12 00:08:02;;;;;;;1.88;1.20;;;17.50;73.40;;;;;;10496953;28;20071;-46
2021/10/12 00:13:03;;;;;;;2.30;1.10;;;17.50;73.30;;;;;;10488456;28;20129;-45
2021/10/12 00:18:04;;;;;;;2.60;0.88;;;17.50;73.30;;;;;;10496954;28;20033;-45
2021/10/12 00:23:06;;;;;;;2.72;0.95;;;17.50;73.40;;;;;;10496530;28;20021;-47
2021/10/12 00:28:07;;;;;;;3.20;1.27;;;17.50;73.30;;;;;;10496395;28;20036;-48
2021/10/12 00:33:07;;;;;;;4.78;1.35;;;17.50;73.20;;;;;;10496433;28;20567;-46
2021/10/12 00:38:08;;;;;;;2.38;1.30;;;17.50;73.10;;;;;;10494618;28;20047;-45
2021/10/12 00:43:09;;;;;;;1.50;1.05;;;17.50;73.20;;;;;;10496250;28;20540;-46
2021/10/12 00:48:10;;;;;;;1.63;0.80;;;17.50;73.20;;;;;;10494091;28;20037;-45
2021/10/12 00:53:11;;;;;;;1.90;1.08;;;17.50;73.30;;;;;;10498746;28;20031;-46
2021/10/12 00:58:14;;;;;;;2.83;1.05;;;17.50;73.20;;;;;;10503323;28;20035;-54
2021/10/12 01:03:16;;;;;;;1.25;0.60;;;17.50;73.30;;;;;;10502819;28;20044;-53
2021/10/12 01:08:17;;;;;;;4.45;1.42;;;17.50;73.30;;;;;;10502912;28;20040;-53
2021/10/12 01:13:18;;;;;;;3.63;1.65;;;17.50;73.30;;;;;;10489215;28;20020;-53
2021/10/12 01:18:20;;;;;;;1.25;0.85;;;17.40;73.20;;;;;;10502559;28;20036;-53
2021/10/12 01:23:21;;;;;;;3.13;1.15;;;17.40;73.20;;;;;;10502361;28;20078;-53
2021/10/12 01:28:22;;;;;;;2.63;1.27;;;17.40;73.20;;;;;;10502318;28;20350;-54
2021/10/12 01:33:22;;;;;;;2.42;0.90;;;17.40;73.10;;;;;;10501936;28;20033;-53
2021/10/12 01:38:30;;;;;;;1.45;1.17;;;17.40;73.00;;;;;;10501829;28;20048;-53
2021/10/12 01:43:30;;;;;;;1.90;0.90;;;17.40;73.00;;;;;;10501611;28;20032;-53
2021/10/12 01:48:33;;;;;;;2.42;1.20;;;17.40;73.10;;;;;;10506123;28;20040;-52
2021/10/12 01:53:34;;;;;;;2.22;1.00;;;17.40;73.10;;;;;;10501209;28;20074;-54
2021/10/12 01:58:35;;;;;;;3.30;1.02;;;17.40;73.10;;;;;;10499884;28;20378;-52
2021/10/12 02:03:35;;;;;;;1.58;0.70;;;17.40;73.20;;;;;;10500041;28;20078;-54
2021/10/12 02:08:36;;;;;;;2.05;0.93;;;17.40;73.10;;;;;;10500574;28;20036;-53
2021/10/12 02:13:37;;;;;;;4.18;0.77;;;17.40;72.70;;;;;;10500348;28;20063;-51
2021/10/12 02:18:37;;;;;;;2.78;1.00;;;17.40;72.60;;;;;;10500012;28;20397;-50
2021/10/12 02:23:38;;;;;;;2.10;0.88;;;17.40;72.60;;;;;;10498660;28;20048;-53
2021/10/12 02:28:39;;;;;;;2.83;0.88;;;17.40;72.50;;;;;;10515631;28;20544;-52
2021/10/12 02:33:40;;;;;;;1.70;0.77;;;17.40;72.50;;;;;;10499576;28;20134;-54
2021/10/12 02:38:41;;;;;;;1.45;0.60;;;17.40;72.50;;;;;;10499420;28;20037;-53
2021/10/12 02:43:41;;;;;;;3.13;0.77;;;17.40;72.50;;;;;;10499004;28;20099;-54
2021/10/12 02:48:42;;;;;;;2.67;0.90;;;17.40;72.50;;;;;;10502546;28;20024;-54
2021/10/12 02:53:43;;;;;;;2.30;0.88;;;17.40;72.60;;;;;;10498517;28;20032;-54
2021/10/12 02:58:43;;;;;;;1.35;0.68;;;17.40;72.60;;;;;;10496894;28;20123;-54
2021/10/12 03:03:44;;;;;;;2.33;1.02;;;17.40;72.50;;;;;;10498328;28;20370;-54
2021/10/12 03:08:45;;;;;;;2.47;0.95;;;17.40;72.40;;;;;;10498295;28;20444;-52
2021/10/12 03:13:45;;;;;;;4.35;1.20;;;17.40;72.50;;;;;;10483184;28;20505;-54
2021/10/12 03:18:46;;;;;;;2.13;0.82;;;17.30;72.50;;;;;;10497695;28;20115;-53
2021/10/12 03:23:47;;;;;;;2.83;0.68;;;17.40;72.40;;;;;;10496256;28;20017;-53
2021/10/12 03:28:47;;;;;;;3.75;0.90;;;17.40;72.20;;;;;;10497898;28;20060;-53
2021/10/12 03:33:48;;;;;;;2.78;0.60;;;17.50;72.20;;;;;;10496023;28;20028;-52
2021/10/12 03:38:49;;;;;;;2.53;0.70;;;17.50;72.00;;;;;;10496610;28;20044;-55
2021/10/12 03:43:50;;;;;;;2.13;0.90;;;17.50;72.60;;;;;;10483792;28;20032;-53
2021/10/12 03:48:50;;;;;;;1.63;0.52;;;17.50;72.00;;;;;;10494379;28;20481;-53
2021/10/12 03:53:51;;;;;;;1.83;0.60;;;17.50;72.00;;;;;;10504122;28;20131;-53
2021/10/12 03:58:53;;;;;;;0.98;0.45;;;17.50;71.90;;;;;;10511935;28;20479;-53
2021/10/12 04:03:54;;;;;;;1.90;0.80;;;17.50;72.00;;;;;;10498958;28;20453;-53
2021/10/12 04:08:55;;;;;;;1.95;0.60;;;17.50;72.00;;;;;;10497898;28;20059;-53
2021/10/12 04:13:56;;;;;;;4.15;0.70;;;17.50;72.00;;;;;;10500715;28;20111;-51
2021/10/12 04:18:56;;;;;;;3.13;0.65;;;17.40;72.00;;;;;;10512535;28;20028;-54
2021/10/12 04:23:58;;;;;;;1.33;0.88;;;17.50;72.10;;;;;;10499644;28;20082;-53
2021/10/12 04:28:59;;;;;;;2.83;0.73;;;17.40;72.00;;;;;;10508780;28;20112;-53
2021/10/12 04:33:59;;;;;;;1.33;0.60;;;17.40;72.10;;;;;;10501909;28;20032;-53
2021/10/12 04:39:00;;;;;;;2.65;0.65;;;17.40;72.10;;;;;;10498306;28;20041;-53
2021/10/12 04:44:02;;;;;;;1.02;0.60;;;17.50;72.00;;;;;;10500414;28;20457;-55
2021/10/12 04:49:03;;;;;;;1.17;0.50;;;17.70;71.20;;;;;;10497557;28;20020;-54
2021/10/12 04:54:04;;;;;;;2.70;0.82;;;17.90;70.70;;;;;;10521334;28;20043;-55
2021/10/12 04:59:05;;;;;;;3.33;0.80;;;18.30;70.40;;;;;;10495613;28;20036;-54
2021/10/12 05:04:06;;;;;;;3.67;1.40;;;18.40;70.90;;;;;;10502625;28;20048;-56
2021/10/12 05:09:06;;;;;;;3.35;1.13;;;18.50;70.60;;;;;;10503006;28;20491;-53
2021/10/12 05:14:07;;;;;;;3.40;1.08;;;18.60;70.50;;;;;;10508075;28;20052;-56
2021/10/12 05:19:08;;;;;;;6.88;1.23;;;18.60;71.20;;;;;;10504192;28;20036;-56
2021/10/12 05:24:08;;;;;;;3.92;1.00;;;18.60;71.50;;;;;;10501465;28;20170;-55
2021/10/12 05:29:13;;;;;;;5.32;1.08;;;18.50;71.70;;;;;;10502658;28;20388;-56
2021/10/12 05:34:13;;;;;;;5.82;1.00;;;18.50;71.70;;;;;;10504922;28;20033;-56
2021/10/12 05:39:14;;;;;;;5.25;1.10;;;18.50;71.70;;;;;;10502004;28;20650;-57
2021/10/12 05:44:15;;;;;;;7.45;1.38;;;18.50;71.80;;;;;;10512535;28;20206;-57
2021/10/12 05:49:16;;;;;;;5.00;1.20;;;18.40;71.90;;;;;;10514409;28;20393;-58
2021/10/12 05:54:19;;;;;;;10.85;1.40;;;18.50;71.90;;;;;;10512968;28;20032;-58
2021/10/12 05:59:20;;;;;;;4.30;1.02;;;18.40;71.80;;;;;;10505851;28;20085;-58
2021/10/12 06:04:20;;;;;;;7.45;1.40;;;18.40;71.70;;;;;;10504864;28;20024;-55
2021/10/12 06:09:21;;;;;;;10.20;2.00;;;18.40;71.60;;;;;;10497700;28;20032;-57
2021/10/12 06:14:22;;;;;;;12.63;1.83;;;18.40;71.90;;;;;;10505820;28;20068;-55
2021/10/12 06:19:22;;;;;;;7.72;1.67;;;18.30;71.90;;;;;;10496873;28;20350;-57
2021/10/12 06:24:23;;;;;;;6.90;1.45;;;18.30;71.80;;;;;;10497105;28;20475;-57
2021/10/12 06:29:24;;;;;;;6.05;1.05;;;18.30;71.90;;;;;;10496611;28;20503;-54
2021/10/12 06:34:24;;;;;;;11.40;2.13;;;18.20;71.90;;;;;;10495867;28;20107;-56
2021/10/12 06:39:25;;;;;;;10.15;2.13;;;18.20;72.10;;;;;;10494994;28;20112;-56
2021/10/12 06:44:26;;;;;;;3.63;1.05;;;18.10;72.10;;;;;;10496001;28;20052;-57
2021/10/12 06:49:26;;;;;;;3.25;0.90;;;18.10;72.30;;;;;;10508084;28;20053;-57
2021/10/12 06:54:27;;;;;;;4.22;1.13;;;18.00;72.40;;;;;;10496567;28;20052;-57
2021/10/12 06:59:28;;;;;;;4.30;1.50;;;18.00;72.40;;;;;;10495501;28;20107;-57
2021/10/12 07:04:29;;;;;;;5.70;0.85;;;18.00;72.20;;;;;;10495998;28;20507;-55
2021/10/12 07:09:30;;;;;;;6.70;1.67;;;18.00;72.20;;;;;;10494759;28;20103;-57
2021/10/12 07:14:31;;;;;;;5.38;1.05;;;18.00;72.30;;;;;;10495170;28;20408;-57
2021/10/12 07:19:31;;;;;;;6.25;1.52;;;18.00;72.30;;;;;;10495371;28;20420;-58
2021/10/12 07:24:32;;;;;;;4.30;1.30;;;17.90;72.40;;;;;;10496912;28;20063;-56
2021/10/12 07:29:33;;;;;;;5.85;0.80;;;17.90;72.30;;;;;;10496940;28;20079;-57
2021/10/12 07:34:33;;;;;;;4.03;1.58;;;18.00;72.20;;;;;;10512119;28;20072;-57
2021/10/12 07:39:34;;;;;;;4.25;1.35;;;18.00;71.90;;;;;;10496729;28;20031;-57
2021/10/12 07:44:37;;;;;;;5.15;1.08;;;18.00;72.00;;;;;;10496447;28;20028;-57
2021/10/12 07:49:37;;;;;;;2.83;1.27;;;18.10;71.80;;;;;;10496676;28;20043;-57
2021/10/12 07:54:50;;;;;;;4.47;0.90;;;18.20;71.70;;;;;;10494717;28;20024;-58
2021/10/12 07:59:51;;;;;;;3.00;1.00;;;18.20;71.70;;;;;;10494153;28;20392;-57
2021/10/12 08:04:52;;;;;;;5.35;0.98;;;18.10;71.70;;;;;;10494836;28;20059;-57
2021/10/12 08:09:53;;;;;;;3.75;1.23;;;18.10;71.90;;;;;;10495621;28;20487;-56
2021/10/12 08:14:59;;;;;;;4.05;1.15;;;18.10;72.20;;;;;;10495847;28;20404;-56
2021/10/12 08:20:00;;;;;;;5.28;1.10;;;18.10;72.10;;;;;;10494027;28;20021;-56
2021/10/12 08:25:01;;;;;;;7.18;1.08;;;18.10;72.00;;;;;;10493851;28;20428;-57
2021/10/12 08:30:11;;;;;;;15.20;2.67;;;18.10;72.10;;;;;;10488372;28;20036;-56
2021/10/12 08:35:12;;;;;;;3.15;0.95;;;18.10;72.40;;;;;;10476567;28;20059;-56
2021/10/12 08:40:14;;;;;;;2.50;1.20;;;18.00;72.30;;;;;;10493336;28;20463;-57
2021/10/12 08:45:18;;;;;;;4.72;1.13;;;18.00;72.30;;;;;;10493907;28;20036;-57
2021/10/12 08:50:22;;;;;;;3.38;1.13;;;18.00;72.40;;;;;;10496817;28;20075;-56
2021/10/12 08:55:23;;;;;;;5.20;1.08;;;18.00;72.40;;;;;;10494665;28;20503;-56
2021/10/12 09:00:28;;;;;;;4.65;1.80;;;18.00;72.40;;;;;;10495469;28;20035;-57
2021/10/12 09:05:28;;;;;;;4.65;1.58;;;17.90;72.50;;;;;;10494034;28;20036;-57
2021/10/12 09:10:31;;;;;;;2.88;1.40;;;17.90;72.50;;;;;;10481561;28;20162;-57
2021/10/12 09:15:31;;;;;;;3.65;1.30;;;17.90;72.70;;;;;;10498690;28;20433;-56
2021/10/12 09:20:33;;;;;;;3.30;1.38;;;17.90;72.70;;;;;;10502037;28;20063;-54
2021/10/12 09:25:35;;;;;;;5.10;1.50;;;17.80;72.70;;;;;;10501009;28;20476;-57
2021/10/12 09:30:39;;;;;;;2.75;0.95;;;17.80;72.70;;;;;;10501810;28;20059;-56
2021/10/12 09:35:41;;;;;;;5.75;1.27;;;17.80;72.80;;;;;;10500058;28;20505;-56
2021/10/12 09:40:46;;;;;;;2.95;1.63;;;17.80;72.80;;;;;;10500514;28;20075;-56
2021/10/12 09:45:47;;;;;;;2.50;1.02;;;17.80;72.70;;;;;;10501178;28;20032;-57
2021/10/12 09:50:47;;;;;;;2.90;1.27;;;17.80;72.70;;;;;;10499931;28;20033;-56
2021/10/12 09:55:51;;;;;;;1.77;0.80;;;17.90;72.50;;;;;;10500629;28;20500;-56
2021/10/12 10:00:53;;;;;;;2.47;1.13;;;18.00;72.10;;;;;;10482515;28;20050;-56
2021/10/12 10:05:57;;;;;;;3.35;1.10;;;18.00;72.00;;;;;;10500328;28;20020;-57
2021/10/12 10:10:58;;;;;;;3.55;1.00;;;18.10;72.10;;;;;;10498754;28;20419;-56
2021/10/12 10:15:59;;;;;;;2.05;1.10;;;18.10;72.10;;;;;;10499777;28;20040;-57
2021/10/12 10:21:02;;;;;;;2.47;0.90;;;18.00;72.30;;;;;;10498534;28;20043;-56
2021/10/12 10:26:23;;;;;;;1.83;0.98;;;18.00;72.40;;;;;;10498742;28;20122;-56
2021/10/12 10:31:41;;;;;;;1.95;0.77;;;18.00;72.50;;;;;;10499530;28;20082;-56
2021/10/12 10:36:42;;;;;;;6.25;1.10;;;18.00;72.50;;;;;;10495094;28;20068;-57
2021/10/12 10:41:43;;;;;;;2.53;1.13;;;18.00;73.00;;;;;;10510448;28;20035;-56
2021/10/12 10:46:44;;;;;;;5.15;1.00;;;18.00;72.70;;;;;;10502231;28;20123;-56
2021/10/12 10:52:04;;;;;;;2.80;0.90;;;17.90;72.80;;;;;;10485926;28;20116;-57
2021/10/12 10:57:19;;;;;;;2.28;0.90;;;17.90;73.00;;;;;;10497930;28;20388;-56
2021/10/12 11:02:26;;;;;;;1.73;0.80;;;17.90;73.00;;;;;;10496627;28;20017;-57
2021/10/12 11:07:28;;;;;;;3.55;0.88;;;17.90;73.00;;;;;;10517898;28;20028;-55
2021/10/12 11:12:31;;;;;;;2.40;0.90;;;17.90;73.00;;;;;;10484181;28;20515;-57
2021/10/12 11:17:32;;;;;;;3.00;0.95;;;17.90;72.90;;;;;;10502902;28;20039;-56
2021/10/12 11:22:40;;;;;;;2.15;0.80;;;17.90;72.90;;;;;;10500452;28;20133;-57
2021/10/12 11:27:46;;;;;;;2.03;0.70;;;17.90;72.80;;;;;;10502206;28;20032;-57
2021/10/12 11:32:55;;;;;;;2.17;0.70;;;18.00;72.90;;;;;;10504660;28;20067;-55
2021/10/12 11:37:55;;;;;;;3.57;1.40;;;17.90;72.90;;;;;;10494929;28;20560;-57
2021/10/12 11:42:58;;;;;;;2.70;0.65;;;18.00;73.00;;;;;;10511559;28;20224;-56
2021/10/12 11:47:59;;;;;;;1.70;0.80;;;18.00;73.00;;;;;;10502688;28;20028;-55
2021/10/12 11:53:00;;;;;;;2.58;0.85;;;18.00;72.90;;;;;;10497826;28;20506;-57
2021/10/12 11:58:10;;;;;;;2.78;0.80;;;18.00;72.90;;;;;;10495987;28;20052;-55
2021/10/12 12:03:16;;;;;;;1.10;0.88;;;18.00;73.00;;;;;;10496126;28;20032;-56
2021/10/12 12:08:18;;;;;;;1.27;0.82;;;18.00;73.00;;;;;;10509385;28;20044;-56
2021/10/12 12:13:19;;;;;;;1.70;1.25;;;18.00;73.10;;;;;;10501659;28;20044;-56
2021/10/12 12:18:23;;;;;;;10.55;1.45;;;18.00;73.20;;;;;;10494587;28;20493;-55
2021/10/12 12:23:47;;;;;;;7.95;1.73;;;18.00;74.10;;;;;;10505395;28;20392;-55
2021/10/12 12:28:47;;;;;;;6.85;1.73;;;18.10;74.00;;;;;;10495616;28;20048;-55
2021/10/12 12:33:51;;;;;;;6.10;0.85;;;18.20;74.20;;;;;;10495445;28;20040;-56
2021/10/12 12:39:06;;;;;;;4.82;1.27;;;18.20;74.40;;;;;;10496180;28;20048;-56
2021/10/12 12:44:07;;;;;;;2.05;0.85;;;18.20;74.20;;;;;;10496188;28;20021;-56
2021/10/12 12:49:10;;;;;;;4.68;1.73;;;18.10;73.60;;;;;;10498776;28;20021;-56
2021/10/12 12:54:35;;;;;;;3.80;1.00;;;18.10;73.60;;;;;;10502411;28;20020;-56
2021/10/12 12:59:36;;;;;;;4.28;1.35;;;18.10;73.60;;;;;;10501777;28;20024;-54
2021/10/12 13:04:36;;;;;;;1.95;0.85;;;18.10;73.50;;;;;;10500155;28;20028;-55
2021/10/12 13:09:37;;;;;;;4.10;0.80;;;18.00;73.50;;;;;;10499458;28;20075;-56
2021/10/12 13:14:37;;;;;;;4.20;1.10;;;18.00;73.60;;;;;;10499739;28;20055;-55
2021/10/12 13:19:38;;;;;;;2.30;0.63;;;18.00;73.70;;;;;;10500729;28;20112;-54
2021/10/12 13:24:39;;;;;;;2.75;0.70;;;17.90;73.70;;;;;;10501632;28;20111;-56
2021/10/12 13:29:40;;;;;;;3.78;1.17;;;17.90;73.70;;;;;;10501818;28;20062;-56
2021/10/12 13:34:41;;;;;;;3.90;0.90;;;18.00;73.70;;;;;;10499957;28;20044;-57
2021/10/12 13:39:42;;;;;;;3.47;1.00;;;18.00;73.70;;;;;;10501238;28;20051;-56
2021/10/12 13:44:42;;;;;;;2.17;0.70;;;18.00;73.60;;;;;;10500765;28;20111;-56
2021/10/12 13:49:43;;;;;;;4.13;1.13;;;18.00;73.40;;;;;;10503075;28;20079;-56
2021/10/12 13:54:44;;;;;;;3.58;0.90;;;18.00;73.40;;;;;;10500720;28;20451;-56
2021/10/12 13:59:44;;;;;;;4.45;0.93;;;18.00;73.30;;;;;;10499856;28;20106;-56
2021/10/12 14:04:45;;;;;;;2.22;0.77;;;18.00;73.30;;;;;;10500132;28;20035;-56
2021/10/12 14:09:48;;;;;;;2.95;0.93;;;18.00;73.20;;;;;;10500083;28;20099;-56
2021/10/12 14:14:49;;;;;;;3.10;0.90;;;18.00;73.10;;;;;;10499946;28;20056;-56
2021/10/12 14:19:50;;;;;;;2.50;1.00;;;18.00;73.70;;;;;;10497050;28;20071;-56
2021/10/12 14:24:51;;;;;;;2.03;0.73;;;18.00;73.00;;;;;;10489720;28;20037;-56
2021/10/12 14:29:59;;;;;;;4.47;1.13;;;18.10;72.90;;;;;;10497682;28;20052;-57
2021/10/12 14:35:00;;;;;;;11.35;1.30;;;18.10;73.10;;;;;;10493706;28;20033;-57
2021/10/12 14:40:07;;;;;;;5.15;1.27;;;18.10;73.40;;;;;;10496045;28;20499;-57
2021/10/12 14:45:08;;;;;;;4.40;1.17;;;18.10;73.50;;;;;;10497880;28;20558;-57
2021/10/12 14:50:12;;;;;;;5.57;1.35;;;18.10;73.20;;;;;;10499080;28;20082;-57
2021/10/12 14:55:15;;;;;;;4.13;1.42;;;18.10;73.30;;;;;;10483608;28;20039;-54
2021/10/12 15:00:16;;;;;;;5.80;1.60;;;18.20;72.90;;;;;;10486381;28;20120;-56
2021/10/12 15:05:17;;;;;;;4.43;0.90;;;18.30;73.60;;;;;;10495810;28;20446;-57
2021/10/12 15:10:18;;;;;;;4.05;1.50;;;18.40;73.10;;;;;;10489913;28;20158;-57
2021/10/12 15:15:20;;;;;;;4.78;1.15;;;18.40;73.60;;;;;;10497465;28;20063;-57
2021/10/12 15:20:20;;;;;;;7.90;1.23;;;18.30;73.80;;;;;;10495892;28;20035;-57
2021/10/12 15:25:21;;;;;;;3.25;1.30;;;18.30;74.20;;;;;;10497188;28;20035;-57
2021/10/12 15:30:22;;;;;;;3.75;1.40;;;18.30;74.20;;;;;;10482900;28;20369;-56
2021/10/12 15:35:23;;;;;;;5.07;0.88;;;18.30;74.10;;;;;;10496804;28;20037;-57
2021/10/12 15:40:23;;;;;;;3.05;1.10;;;18.20;74.10;;;;;;10493998;28;20448;-57
2021/10/12 15:45:24;;;;;;;3.15;1.30;;;18.30;73.00;;;;;;10496591;28;20074;-56
2021/10/12 15:50:25;;;;;;;4.45;1.38;;;18.30;72.80;;;;;;10505540;28;20036;-55
2021/10/12 15:55:26;;;;;;;14.60;1.88;;;18.50;71.70;;;;;;10492521;28;20029;-56
2021/10/12 16:00:27;;;;;;;7.32;1.80;;;18.60;71.50;;;;;;10496147;28;20036;-56
2021/10/12 16:05:27;;;;;;;8.82;1.42;;;18.60;70.60;;;;;;10475846;28;20028;-57
2021/10/12 16:10:28;;;;;;;9.48;2.15;;;18.60;70.50;;;;;;10482792;28;20037;-56
2021/10/12 16:26:07;;;;;;;6.60;1.90;;;18.90;73.90;;;;;;10503002;28;20173;-57
2021/10/12 16:31:07;;;;;;;12.27;1.80;;;18.90;73.80;;;;;;10502477;28;20300;-56
2021/10/12 16:36:12;;;;;;;7.53;2.08;;;19.00;74.30;;;;;;10499054;28;20044;-58
2021/10/12 16:41:13;;;;;;;10.23;1.80;;;18.90;74.30;;;;;;10500079;28;20396;-56
2021/10/12 16:46:14;;;;;;;6.78;1.42;;;18.80;74.10;;;;;;10502907;28;20028;-58
2021/10/12 16:51:15;;;;;;;7.75;1.85;;;18.70;74.60;;;;;;10502873;28;20048;-57
2021/10/12 16:56:16;;;;;;;13.27;2.10;;;18.70;75.30;;;;;;10502160;28;20017;-56
2021/10/12 17:01:17;;;;;;;8.48;1.83;;;18.70;74.60;;;;;;10500849;28;20063;-57
2021/10/12 17:06:17;;;;;;;10.00;1.52;;;18.70;74.80;;;;;;10500527;28;20035;-56
2021/10/12 17:11:19;;;;;;;6.10;1.10;;;18.50;75.10;;;;;;10501333;28;20127;-56
2021/10/12 17:16:21;;;;;;;6.38;1.65;;;18.50;75.00;;;;;;10500592;28;20032;-56
2021/10/12 17:21:23;;;;;;;8.63;1.35;;;18.50;75.10;;;;;;10501025;28;20020;-56
2021/10/12 17:26:26;;;;;;;10.70;1.30;;;18.50;74.80;;;;;;10500099;28;20029;-56
2021/10/12 17:31:27;;;;;;;4.95;1.05;;;18.50;75.30;;;;;;10501122;28;20378;-56
2021/10/12 17:36:29;;;;;;;11.02;1.48;;;18.50;75.30;;;;;;10495422;28;20050;-55
2021/10/12 17:41:29;;;;;;;6.50;1.13;;;18.40;75.00;;;;;;10494896;28;20361;-56
2021/10/12 17:46:30;;;;;;;7.70;1.50;;;18.30;75.50;;;;;;10500312;28;20107;-56
2021/10/12 17:51:30;;;;;;;7.95;1.70;;;18.30;75.20;;;;;;10499564;28;20040;-55
2021/10/12 17:56:31;;;;;;;6.53;1.60;;;18.30;75.60;;;;;;10495001;28;20042;-55
2021/10/12 18:01:32;;;;;;;7.75;1.38;;;18.30;75.50;;;;;;10498603;28;20028;-56
2021/10/12 18:06:40;;;;;;;5.93;1.08;;;18.30;75.50;;;;;;10495042;28;20132;-55
2021/10/12 18:11:45;;;;;;;6.85;1.30;;;18.20;75.40;;;;;;10490828;28;20098;-55
2021/10/12 18:16:47;;;;;;;6.80;1.33;;;18.20;75.30;;;;;;10513324;28;20040;-55
2021/10/12 18:21:48;;;;;;;11.63;1.23;;;18.20;75.40;;;;;;10496491;28;20031;-56
2021/10/12 18:26:51;;;;;;;6.60;1.25;;;18.20;74.90;;;;;;10498754;28;20039;-55
2021/10/12 18:31:52;;;;;;;7.70;1.58;;;18.30;75.20;;;;;;10497009;28;20128;-56
2021/10/12 18:36:53;;;;;;;6.25;1.30;;;18.30;75.50;;;;;;10499298;28;20045;-54
2021/10/12 18:41:54;;;;;;;8.35;1.20;;;18.30;75.40;;;;;;10498403;28;20040;-56
2021/10/12 18:46:54;;;;;;;4.55;0.93;;;18.30;75.40;;;;;;10498730;28;20107;-56
2021/10/12 18:51:55;;;;;;;8.50;1.13;;;18.30;75.50;;;;;;10501337;28;20492;-56
2021/10/12 18:56:56;;;;;;;5.68;1.20;;;18.30;75.50;;;;;;10498948;28;20385;-56
2021/10/12 19:01:56;;;;;;;5.00;1.20;;;18.30;75.40;;;;;;10498706;28;20024;-57
2021/10/12 19:06:57;;;;;;;6.20;1.83;;;18.30;75.50;;;;;;10497610;28;20150;-57
2021/10/12 19:11:58;;;;;;;6.80;1.23;;;18.20;75.40;;;;;;10496951;28;20032;-57
2021/10/12 19:16:59;;;;;;;7.85;0.80;;;18.20;75.40;;;;;;10497397;28;20028;-56
2021/10/12 19:21:59;;;;;;;7.43;1.30;;;18.20;75.40;;;;;;10498038;28;20048;-56
2021/10/12 19:27:00;;;;;;;7.70;1.00;;;18.30;75.40;;;;;;10498126;28;20148;-57
2021/10/12 19:32:01;;;;;;;4.53;1.35;;;18.20;74.90;;;;;;10492055;28;20052;-55
2021/10/12 19:37:02;;;;;;;3.65;0.95;;;18.20;75.00;;;;;;10494710;28;20043;-55
2021/10/12 19:42:04;;;;;;;2.28;1.10;;;18.10;75.00;;;;;;10492478;28;20047;-57
2021/10/12 19:47:04;;;;;;;4.82;1.35;;;18.00;75.00;;;;;;10492895;28;20056;-53
2021/10/12 19:52:08;;;;;;;5.03;1.75;;;18.00;75.10;;;;;;10484576;28;20111;-57
2021/10/12 19:57:08;;;;;;;4.60;1.02;;;18.00;75.10;;;;;;10493432;28;20432;-57
2021/10/12 20:07:28;;;;;;;5.88;1.23;;;17.90;75.00;;;;;;10489566;28;20040;-56
2021/10/12 20:12:29;;;;;;;3.10;1.00;;;17.90;75.00;;;;;;10491076;28;20040;-56
2021/10/12 20:17:30;;;;;;;3.05;0.88;;;17.90;75.10;;;;;;10488672;28;20029;-55
2021/10/12 20:22:30;;;;;;;3.95;0.98;;;17.80;74.90;;;;;;10496988;28;20028;-57
2021/10/12 20:27:31;;;;;;;3.42;0.90;;;17.80;74.90;;;;;;10492759;28;20071;-57
2021/10/12 20:32:32;;;;;;;7.70;1.45;;;17.80;74.90;;;;;;10496543;28;20487;-57
2021/10/12 20:37:33;;;;;;;2.00;1.30;;;17.80;74.80;;;;;;10495272;28;20071;-57
2021/10/12 20:42:34;;;;;;;1.63;0.93;;;17.80;74.80;;;;;;10487759;28;20393;-57
2021/10/12 20:47:35;;;;;;;3.38;1.08;;;17.80;74.80;;;;;;10491890;28;20047;-57
2021/10/12 20:52:36;;;;;;;2.13;0.80;;;17.70;74.60;;;;;;10496892;28;20111;-58
2021/10/12 20:57:37;;;;;;;6.18;1.25;;;17.70;74.60;;;;;;10495602;28;20036;-57
2021/10/12 21:02:37;;;;;;;3.15;1.00;;;17.70;74.60;;;;;;10495719;28;20063;-57
2021/10/12 21:07:38;;;;;;;1.48;0.90;;;17.70;74.60;;;;;;10495693;28;20028;-57
2021/10/12 21:12:40;;;;;;;2.70;1.05;;;17.70;74.50;;;;;;10501024;28;20036;-57
2021/10/12 21:17:41;;;;;;;3.97;1.10;;;17.70;74.60;;;;;;10494366;28;20037;-57
2021/10/12 21:22:42;;;;;;;2.30;0.77;;;17.70;74.50;;;;;;10501888;28;20171;-56
2021/10/12 21:27:43;;;;;;;2.38;1.05;;;17.60;74.40;;;;;;10478137;28;20041;-57
2021/10/12 21:32:44;;;;;;;2.75;0.90;;;17.60;74.40;;;;;;10501018;28;20068;-57
2021/10/12 21:37:44;;;;;;;3.05;1.17;;;17.60;74.40;;;;;;10500614;28;20044;-57
2021/10/12 21:42:46;;;;;;;2.35;1.10;;;17.60;74.40;;;;;;10501977;28;20052;-57
2021/10/12 21:47:46;;;;;;;2.65;0.88;;;17.60;74.30;;;;;;10501855;28;20036;-55
2021/10/12 21:52:47;;;;;;;2.92;1.38;;;17.60;74.30;;;;;;10503303;28;20059;-56
2021/10/12 21:57:48;;;;;;;2.28;0.93;;;17.60;74.30;;;;;;10501159;28;20066;-56
2021/10/12 22:02:49;;;;;;;2.35;0.63;;;17.60;74.20;;;;;;10501516;28;20491;-57
2021/10/12 22:07:49;;;;;;;1.50;0.60;;;17.60;74.20;;;;;;10485745;28;20036;-57
2021/10/12 22:12:50;;;;;;;1.92;0.98;;;17.60;74.20;;;;;;10488729;28;20489;-57
2021/10/12 22:17:51;;;;;;;5.07;1.20;;;17.50;74.10;;;;;;10515981;28;20037;-57
2021/10/12 22:22:51;;;;;;;2.75;0.80;;;17.50;74.10;;;;;;10498388;28;20052;-57
2021/10/12 22:27:52;;;;;;;2.65;0.85;;;17.50;74.10;;;;;;10500101;28;20024;-57
2021/10/12 22:32:53;;;;;;;1.70;1.00;;;17.50;74.10;;;;;;10499581;28;20043;-57
2021/10/12 22:37:54;;;;;;;1.88;0.77;;;17.50;74.10;;;;;;10499379;28;20043;-57
2021/10/12 22:42:55;;;;;;;2.47;0.95;;;17.50;74.10;;;;;;10499564;28;20465;-57
2021/10/12 22:47:55;;;;;;;1.75;0.70;;;17.50;74.10;;;;;;10499544;28;20060;-57
2021/10/12 22:52:59;;;;;;;3.35;1.00;;;17.50;74.00;;;;;;10501247;28;20056;-57
2021/10/12 22:57:59;;;;;;;2.03;0.80;;;17.50;74.00;;;;;;10497594;28;20024;-57
2021/10/12 23:03:00;;;;;;;1.90;0.80;;;17.40;73.90;;;;;;10498778;28;20115;-57
2021/10/12 23:08:01;;;;;;;1.45;0.65;;;17.40;73.90;;;;;;10495335;28;20083;-56
2021/10/12 23:13:02;;;;;;;3.30;1.25;;;17.40;73.90;;;;;;10498523;28;20032;-57
2021/10/12 23:18:04;;;;;;;2.15;0.93;;;17.50;73.90;;;;;;10498004;28;20036;-57
2021/10/12 23:23:06;;;;;;;2.22;0.65;;;17.40;73.80;;;;;;10497920;28;20028;-57
2021/10/12 23:28:07;;;;;;;1.85;0.90;;;17.50;73.80;;;;;;10496882;28;20040;-56
2021/10/12 23:33:08;;;;;;;3.47;1.08;;;17.40;73.70;;;;;;10497847;28;20380;-56
2021/10/12 23:38:08;;;;;;;1.30;0.80;;;17.40;73.70;;;;;;10497379;28;20048;-56
2021/10/12 23:43:09;;;;;;;2.25;0.80;;;17.40;73.60;;;;;;10479431;28;20051;-57
2021/10/12 23:48:10;;;;;;;2.03;0.90;;;17.50;73.50;;;;;;10497092;28;20437;-57
2021/10/12 23:53:10;;;;;;;2.70;0.80;;;17.50;73.40;;;;;;10497389;28;20064;-57
2021/10/12 23:58:11;;;;;;;2.35;1.15;;;17.50;73.40;;;;;;10496879;28;20086;-57
